sensor_id;sensor_type;location;lat;lon;timestamp;temperature;humidity
2861;DHT22;1438;50.922;6.704;2022-11-20T00:01:46;4.10;99.90
2861;DHT22;1438;50.922;6.704;2022-11-20T00:04:12;4.10;99.90
2861;DHT22;1438;50.922;6.704;2022-11-20T00:06:38;4.10;99.90
2861;DHT22;1438;50.922;6.704;2022-11-20T00:09:03;4.10;99.90
2861;DHT22;1438;50.922;6.704;2022-11-20T00:11:31;4.10;99.90
2861;DHT22;1438;50.922;6.704;2022-11-20T00:13:59;4.10;99.90
2861;DHT22;1438;50.922;6.704;2022-11-20T00:16:27;4.10;99.90
2861;DHT22;1438;50.922;6.704;2022-11-20T00:18:53;4.10;99.90
2861;DHT22;1438;50.922;6.704;2022-11-20T00:21:29;4.00;99.90
2861;DHT22;1438;50.922;6.704;2022-11-20T00:23:56;4.00;99.90
2861;DHT22;1438;50.922;6.704;2022-11-20T00:26:24;4.00;99.90
2861;DHT22;1438;50.922;6.704;2022-11-20T00:28:51;4.00;99.90
2861;DHT22;1438;50.922;6.704;2022-11-20T00:31:18;4.00;99.90
2861;DHT22;1438;50.922;6.704;2022-11-20T00:33:44;4.10;99.90
2861;DHT22;1438;50.922;6.704;2022-11-20T00:36:15;4.00;99.90
2861;DHT22;1438;50.922;6.704;2022-11-20T00:38:41;4.00;99.90
2861;DHT22;1438;50.922;6.704;2022-11-20T00:41:09;4.00;99.90
2861;DHT22;1438;50.922;6.704;2022-11-20T00:43:36;4.00;99.90
2861;DHT22;1438;50.922;6.704;2022-11-20T00:46:04;4.10;99.90
2861;DHT22;1438;50.922;6.704;2022-11-20T00:48:30;4.00;99.90
2861;DHT22;1438;50.922;6.704;2022-11-20T00:50:56;4.00;99.90
2861;DHT22;1438;50.922;6.704;2022-11-20T00:53:22;4.00;99.90
2861;DHT22;1438;50.922;6.704;2022-11-20T00:56:05;4.00;99.90
2861;DHT22;1438;50.922;6.704;2022-11-20T00:58:34;4.00;99.90
2861;DHT22;1438;50.922;6.704;2022-11-20T01:03:32;3.90;99.90
2861;DHT22;1438;50.922;6.704;2022-11-20T01:06:02;3.90;99.90
2861;DHT22;1438;50.922;6.704;2022-11-20T01:08:34;3.90;99.90
2861;DHT22;1438;50.922;6.704;2022-11-20T01:11:11;4.00;99.90
2861;DHT22;1438;50.922;6.704;2022-11-20T01:13:38;3.90;99.90
2861;DHT22;1438;50.922;6.704;2022-11-20T01:16:08;3.90;99.90
2861;DHT22;1438;50.922;6.704;2022-11-20T01:18:34;3.90;99.90
2861;DHT22;1438;50.922;6.704;2022-11-20T01:21:06;3.90;99.90
2861;DHT22;1438;50.922;6.704;2022-11-20T01:23:34;3.90;99.90
2861;DHT22;1438;50.922;6.704;2022-11-20T01:26:02;3.80;99.90
2861;DHT22;1438;50.922;6.704;2022-11-20T01:28:28;3.80;99.90
2861;DHT22;1438;50.922;6.704;2022-11-20T01:30:54;3.80;99.90
2861;DHT22;1438;50.922;6.704;2022-11-20T01:33:19;3.80;99.90
2861;DHT22;1438;50.922;6.704;2022-11-20T01:35:45;3.80;99.90
2861;DHT22;1438;50.922;6.704;2022-11-20T01:38:11;3.80;99.90
2861;DHT22;1438;50.922;6.704;2022-11-20T01:40:36;3.80;99.90
2861;DHT22;1438;50.922;6.704;2022-11-20T01:43:13;3.80;99.90
2861;DHT22;1438;50.922;6.704;2022-11-20T01:48:40;3.70;99.90
2861;DHT22;1438;50.922;6.704;2022-11-20T01:51:16;3.60;99.90
2861;DHT22;1438;50.922;6.704;2022-11-20T01:53:42;3.60;99.90
2861;DHT22;1438;50.922;6.704;2022-11-20T01:56:10;3.60;99.90
2861;DHT22;1438;50.922;6.704;2022-11-20T01:58:42;3.60;99.90
2861;DHT22;1438;50.922;6.704;2022-11-20T02:01:09;3.50;99.90
2861;DHT22;1438;50.922;6.704;2022-11-20T02:03:35;3.50;99.90
2861;DHT22;1438;50.922;6.704;2022-11-20T02:06:19;3.60;99.90
2861;DHT22;1438;50.922;6.704;2022-11-20T02:08:46;3.70;99.90
2861;DHT22;1438;50.922;6.704;2022-11-20T02:11:11;3.70;99.90
2861;DHT22;1438;50.922;6.704;2022-11-20T02:13:38;3.70;99.90
2861;DHT22;1438;50.922;6.704;2022-11-20T02:16:19;3.70;99.90
2861;DHT22;1438;50.922;6.704;2022-11-20T02:18:46;3.70;99.90
2861;DHT22;1438;50.922;6.704;2022-11-20T02:26:35;3.70;99.90
2861;DHT22;1438;50.922;6.704;2022-11-20T02:29:03;3.70;99.90
2861;DHT22;1438;50.922;6.704;2022-11-20T02:31:35;3.60;99.90
2861;DHT22;1438;50.922;6.704;2022-11-20T02:34:00;3.70;99.90
2861;DHT22;1438;50.922;6.704;2022-11-20T02:36:27;3.60;99.90
2861;DHT22;1438;50.922;6.704;2022-11-20T02:38:53;3.70;99.90
2861;DHT22;1438;50.922;6.704;2022-11-20T02:41:19;3.60;99.90
2861;DHT22;1438;50.922;6.704;2022-11-20T02:43:45;3.60;99.90
2861;DHT22;1438;50.922;6.704;2022-11-20T02:46:10;3.60;99.90
2861;DHT22;1438;50.922;6.704;2022-11-20T02:48:36;3.60;99.90
2861;DHT22;1438;50.922;6.704;2022-11-20T02:51:02;3.60;99.90
2861;DHT22;1438;50.922;6.704;2022-11-20T02:53:27;3.50;99.90
2861;DHT22;1438;50.922;6.704;2022-11-20T02:55:53;3.50;99.90
2861;DHT22;1438;50.922;6.704;2022-11-20T02:58:19;3.50;99.90
2861;DHT22;1438;50.922;6.704;2022-11-20T03:00:44;3.50;99.90
2861;DHT22;1438;50.922;6.704;2022-11-20T03:03:10;3.60;99.90
2861;DHT22;1438;50.922;6.704;2022-11-20T03:05:35;3.50;99.90
2861;DHT22;1438;50.922;6.704;2022-11-20T03:08:01;3.40;99.90
2861;DHT22;1438;50.922;6.704;2022-11-20T03:10:26;3.40;99.90
2861;DHT22;1438;50.922;6.704;2022-11-20T03:12:56;3.40;99.90
2861;DHT22;1438;50.922;6.704;2022-11-20T03:15:25;3.40;99.90
2861;DHT22;1438;50.922;6.704;2022-11-20T03:17:54;3.30;99.90
2861;DHT22;1438;50.922;6.704;2022-11-20T03:20:21;3.30;99.90
2861;DHT22;1438;50.922;6.704;2022-11-20T03:22:47;3.30;99.90
2861;DHT22;1438;50.922;6.704;2022-11-20T03:25:12;3.40;99.90
2861;DHT22;1438;50.922;6.704;2022-11-20T03:27:38;3.30;99.90
2861;DHT22;1438;50.922;6.704;2022-11-20T03:30:04;3.30;99.90
2861;DHT22;1438;50.922;6.704;2022-11-20T03:32:30;3.40;99.90
2861;DHT22;1438;50.922;6.704;2022-11-20T03:34:56;3.30;99.90
2861;DHT22;1438;50.922;6.704;2022-11-20T03:37:22;3.40;99.90
2861;DHT22;1438;50.922;6.704;2022-11-20T03:39:48;3.30;99.90
2861;DHT22;1438;50.922;6.704;2022-11-20T03:42:13;3.20;99.90
2861;DHT22;1438;50.922;6.704;2022-11-20T03:44:57;3.30;99.90
2861;DHT22;1438;50.922;6.704;2022-11-20T03:47:23;3.30;99.90
2861;DHT22;1438;50.922;6.704;2022-11-20T03:49:48;3.30;99.90
2861;DHT22;1438;50.922;6.704;2022-11-20T03:52:14;3.40;99.90
2861;DHT22;1438;50.922;6.704;2022-11-20T03:54:39;3.40;99.90
2861;DHT22;1438;50.922;6.704;2022-11-20T03:57:05;3.40;99.90
2861;DHT22;1438;50.922;6.704;2022-11-20T03:59:30;3.40;99.90
2861;DHT22;1438;50.922;6.704;2022-11-20T04:01:56;3.40;99.90
2861;DHT22;1438;50.922;6.704;2022-11-20T04:04:22;3.40;99.90
2861;DHT22;1438;50.922;6.704;2022-11-20T04:06:47;3.30;99.90
2861;DHT22;1438;50.922;6.704;2022-11-20T04:09:13;3.30;99.90
2861;DHT22;1438;50.922;6.704;2022-11-20T04:11:40;3.30;99.90
2861;DHT22;1438;50.922;6.704;2022-11-20T04:14:11;3.20;99.90
2861;DHT22;1438;50.922;6.704;2022-11-20T04:16:38;3.20;99.90
2861;DHT22;1438;50.922;6.704;2022-11-20T04:19:05;3.20;99.90
2861;DHT22;1438;50.922;6.704;2022-11-20T04:21:31;3.20;99.90
2861;DHT22;1438;50.922;6.704;2022-11-20T04:23:57;3.10;99.90
2861;DHT22;1438;50.922;6.704;2022-11-20T04:26:25;3.20;99.90
2861;DHT22;1438;50.922;6.704;2022-11-20T04:28:51;3.20;99.90
2861;DHT22;1438;50.922;6.704;2022-11-20T04:31:23;3.20;99.90
2861;DHT22;1438;50.922;6.704;2022-11-20T04:33:49;3.20;99.90
2861;DHT22;1438;50.922;6.704;2022-11-20T04:36:21;3.10;99.90
2861;DHT22;1438;50.922;6.704;2022-11-20T04:38:50;3.10;99.90
2861;DHT22;1438;50.922;6.704;2022-11-20T04:41:17;3.20;99.90
2861;DHT22;1438;50.922;6.704;2022-11-20T04:43:48;3.20;99.90
2861;DHT22;1438;50.922;6.704;2022-11-20T04:46:15;3.20;99.90
2861;DHT22;1438;50.922;6.704;2022-11-20T04:48:44;3.30;99.90
2861;DHT22;1438;50.922;6.704;2022-11-20T04:51:10;3.30;99.90
2861;DHT22;1438;50.922;6.704;2022-11-20T04:53:37;3.30;99.90
2861;DHT22;1438;50.922;6.704;2022-11-20T04:56:04;3.40;99.90
2861;DHT22;1438;50.922;6.704;2022-11-20T04:58:30;3.40;99.90
2861;DHT22;1438;50.922;6.704;2022-11-20T05:01:04;3.40;99.90
2861;DHT22;1438;50.922;6.704;2022-11-20T05:03:30;3.40;99.90
2861;DHT22;1438;50.922;6.704;2022-11-20T05:05:55;3.40;99.90
2861;DHT22;1438;50.922;6.704;2022-11-20T05:08:21;3.40;99.90
2861;DHT22;1438;50.922;6.704;2022-11-20T05:10:47;3.30;99.90
2861;DHT22;1438;50.922;6.704;2022-11-20T05:13:12;3.30;99.90
2861;DHT22;1438;50.922;6.704;2022-11-20T05:15:38;3.40;99.90
2861;DHT22;1438;50.922;6.704;2022-11-20T05:18:03;3.40;99.90
2861;DHT22;1438;50.922;6.704;2022-11-20T05:20:29;3.40;99.90
2861;DHT22;1438;50.922;6.704;2022-11-20T05:22:58;3.30;99.90
2861;DHT22;1438;50.922;6.704;2022-11-20T05:25:23;3.30;99.90
2861;DHT22;1438;50.922;6.704;2022-11-20T05:27:49;3.30;99.90
2861;DHT22;1438;50.922;6.704;2022-11-20T05:30:15;3.40;99.90
2861;DHT22;1438;50.922;6.704;2022-11-20T05:32:40;3.40;99.90
2861;DHT22;1438;50.922;6.704;2022-11-20T05:35:06;3.50;99.90
2861;DHT22;1438;50.922;6.704;2022-11-20T05:37:32;3.60;99.90
2861;DHT22;1438;50.922;6.704;2022-11-20T05:39:58;3.60;99.90
2861;DHT22;1438;50.922;6.704;2022-11-20T05:42:23;3.60;99.90
2861;DHT22;1438;50.922;6.704;2022-11-20T05:45:03;3.70;99.90
2861;DHT22;1438;50.922;6.704;2022-11-20T05:47:32;3.60;99.90
2861;DHT22;1438;50.922;6.704;2022-11-20T05:49:57;3.70;99.90
2861;DHT22;1438;50.922;6.704;2022-11-20T05:52:23;3.70;99.90
2861;DHT22;1438;50.922;6.704;2022-11-20T05:54:50;3.70;99.90
2861;DHT22;1438;50.922;6.704;2022-11-20T05:57:16;3.70;99.90
2861;DHT22;1438;50.922;6.704;2022-11-20T05:59:42;3.70;99.90
2861;DHT22;1438;50.922;6.704;2022-11-20T06:02:07;3.70;99.90
2861;DHT22;1438;50.922;6.704;2022-11-20T06:04:33;3.70;99.90
2861;DHT22;1438;50.922;6.704;2022-11-20T06:06:58;3.80;99.90
2861;DHT22;1438;50.922;6.704;2022-11-20T06:09:24;3.80;99.90
2861;DHT22;1438;50.922;6.704;2022-11-20T06:11:49;3.70;99.90
2861;DHT22;1438;50.922;6.704;2022-11-20T06:14:15;3.70;99.90
2861;DHT22;1438;50.922;6.704;2022-11-20T06:16:41;3.70;99.90
2861;DHT22;1438;50.922;6.704;2022-11-20T06:19:06;3.70;99.90
2861;DHT22;1438;50.922;6.704;2022-11-20T06:21:32;3.60;99.90
2861;DHT22;1438;50.922;6.704;2022-11-20T06:23:58;3.60;99.90
2861;DHT22;1438;50.922;6.704;2022-11-20T06:26:25;3.50;99.90
2861;DHT22;1438;50.922;6.704;2022-11-20T06:28:52;3.60;99.90
2861;DHT22;1438;50.922;6.704;2022-11-20T06:31:20;3.60;99.90
2861;DHT22;1438;50.922;6.704;2022-11-20T06:33:47;3.50;99.90
2861;DHT22;1438;50.922;6.704;2022-11-20T06:36:14;3.60;99.90
2861;DHT22;1438;50.922;6.704;2022-11-20T06:38:40;3.60;99.90
2861;DHT22;1438;50.922;6.704;2022-11-20T06:41:10;3.60;99.90
2861;DHT22;1438;50.922;6.704;2022-11-20T06:43:36;3.50;99.90
2861;DHT22;1438;50.922;6.704;2022-11-20T06:46:01;3.50;99.90
2861;DHT22;1438;50.922;6.704;2022-11-20T06:48:28;3.60;99.90
2861;DHT22;1438;50.922;6.704;2022-11-20T06:50:53;3.50;99.90
2861;DHT22;1438;50.922;6.704;2022-11-20T06:53:19;3.50;99.90
2861;DHT22;1438;50.922;6.704;2022-11-20T06:55:46;3.50;99.90
2861;DHT22;1438;50.922;6.704;2022-11-20T06:58:13;3.50;99.90
2861;DHT22;1438;50.922;6.704;2022-11-20T07:00:39;3.50;99.90
2861;DHT22;1438;50.922;6.704;2022-11-20T07:03:05;3.40;99.90
2861;DHT22;1438;50.922;6.704;2022-11-20T07:05:31;3.40;99.90
2861;DHT22;1438;50.922;6.704;2022-11-20T07:07:57;3.50;99.90
2861;DHT22;1438;50.922;6.704;2022-11-20T07:10:24;3.40;99.90
2861;DHT22;1438;50.922;6.704;2022-11-20T07:12:50;3.40;99.90
2861;DHT22;1438;50.922;6.704;2022-11-20T07:15:17;3.50;99.90
2861;DHT22;1438;50.922;6.704;2022-11-20T07:17:42;3.60;99.90
2861;DHT22;1438;50.922;6.704;2022-11-20T07:20:08;3.50;99.90
2861;DHT22;1438;50.922;6.704;2022-11-20T07:22:34;3.50;99.90
2861;DHT22;1438;50.922;6.704;2022-11-20T07:25:00;3.60;99.90
2861;DHT22;1438;50.922;6.704;2022-11-20T07:27:27;3.60;99.90
2861;DHT22;1438;50.922;6.704;2022-11-20T07:29:52;3.60;99.90
2861;DHT22;1438;50.922;6.704;2022-11-20T07:32:18;3.60;99.90
2861;DHT22;1438;50.922;6.704;2022-11-20T07:34:44;3.60;99.90
2861;DHT22;1438;50.922;6.704;2022-11-20T07:37:10;3.60;99.90
2861;DHT22;1438;50.922;6.704;2022-11-20T07:39:35;3.70;99.90
2861;DHT22;1438;50.922;6.704;2022-11-20T07:42:01;3.70;99.90
2861;DHT22;1438;50.922;6.704;2022-11-20T07:44:27;3.60;99.90
2861;DHT22;1438;50.922;6.704;2022-11-20T07:46:52;3.70;99.90
2861;DHT22;1438;50.922;6.704;2022-11-20T07:49:18;3.60;99.90
2861;DHT22;1438;50.922;6.704;2022-11-20T07:51:43;3.60;99.90
2861;DHT22;1438;50.922;6.704;2022-11-20T07:54:09;3.70;99.90
2861;DHT22;1438;50.922;6.704;2022-11-20T07:56:34;3.70;99.90
2861;DHT22;1438;50.922;6.704;2022-11-20T07:59:00;3.70;99.90
2861;DHT22;1438;50.922;6.704;2022-11-20T08:01:25;3.60;99.90
2861;DHT22;1438;50.922;6.704;2022-11-20T08:03:51;3.70;99.90
2861;DHT22;1438;50.922;6.704;2022-11-20T08:06:17;3.70;99.90
2861;DHT22;1438;50.922;6.704;2022-11-20T08:08:43;3.80;99.90
2861;DHT22;1438;50.922;6.704;2022-11-20T08:11:09;3.80;99.90
2861;DHT22;1438;50.922;6.704;2022-11-20T08:13:53;3.80;99.90
2861;DHT22;1438;50.922;6.704;2022-11-20T08:16:41;3.80;99.90
2861;DHT22;1438;50.922;6.704;2022-11-20T08:19:07;3.80;99.90
2861;DHT22;1438;50.922;6.704;2022-11-20T08:21:32;3.80;99.90
2861;DHT22;1438;50.922;6.704;2022-11-20T08:23:59;3.90;99.90
2861;DHT22;1438;50.922;6.704;2022-11-20T08:26:25;4.00;99.90
2861;DHT22;1438;50.922;6.704;2022-11-20T08:28:56;4.00;99.90
2861;DHT22;1438;50.922;6.704;2022-11-20T08:31:23;3.90;99.90
2861;DHT22;1438;50.922;6.704;2022-11-20T08:33:50;3.90;99.90
2861;DHT22;1438;50.922;6.704;2022-11-20T08:36:16;4.00;99.90
2861;DHT22;1438;50.922;6.704;2022-11-20T08:38:42;4.00;99.90
2861;DHT22;1438;50.922;6.704;2022-11-20T08:41:07;4.10;99.90
2861;DHT22;1438;50.922;6.704;2022-11-20T08:44:02;4.10;99.90
2861;DHT22;1438;50.922;6.704;2022-11-20T08:46:37;4.20;99.90
2861;DHT22;1438;50.922;6.704;2022-11-20T08:49:05;4.30;99.90
2861;DHT22;1438;50.922;6.704;2022-11-20T08:51:31;4.30;99.90
2861;DHT22;1438;50.922;6.704;2022-11-20T08:53:57;4.30;99.90
2861;DHT22;1438;50.922;6.704;2022-11-20T08:56:23;4.50;99.90
2861;DHT22;1438;50.922;6.704;2022-11-20T08:58:50;4.70;99.90
2861;DHT22;1438;50.922;6.704;2022-11-20T09:01:17;4.80;99.90
2861;DHT22;1438;50.922;6.704;2022-11-20T09:03:42;4.70;99.90
2861;DHT22;1438;50.922;6.704;2022-11-20T09:06:08;4.90;99.90
2861;DHT22;1438;50.922;6.704;2022-11-20T09:08:34;4.90;99.90
2861;DHT22;1438;50.922;6.704;2022-11-20T09:11:01;5.10;99.90
2861;DHT22;1438;50.922;6.704;2022-11-20T09:13:27;5.10;99.90
2861;DHT22;1438;50.922;6.704;2022-11-20T09:16:07;5.20;99.90
2861;DHT22;1438;50.922;6.704;2022-11-20T09:18:34;5.20;99.90
2861;DHT22;1438;50.922;6.704;2022-11-20T09:21:03;5.20;99.90
2861;DHT22;1438;50.922;6.704;2022-11-20T09:23:34;5.30;99.90
2861;DHT22;1438;50.922;6.704;2022-11-20T09:26:11;5.30;99.90
2861;DHT22;1438;50.922;6.704;2022-11-20T09:28:37;5.40;99.90
2861;DHT22;1438;50.922;6.704;2022-11-20T09:31:07;5.60;99.90
2861;DHT22;1438;50.922;6.704;2022-11-20T09:33:33;5.50;99.90
2861;DHT22;1438;50.922;6.704;2022-11-20T09:36:00;5.50;99.90
2861;DHT22;1438;50.922;6.704;2022-11-20T09:38:25;5.40;99.90
2861;DHT22;1438;50.922;6.704;2022-11-20T09:40:58;5.40;99.90
2861;DHT22;1438;50.922;6.704;2022-11-20T09:46:53;5.60;99.90
2861;DHT22;1438;50.922;6.704;2022-11-20T09:49:24;5.60;99.90
2861;DHT22;1438;50.922;6.704;2022-11-20T09:51:58;5.60;99.90
2861;DHT22;1438;50.922;6.704;2022-11-20T09:54:36;5.70;99.90
2861;DHT22;1438;50.922;6.704;2022-11-20T09:57:08;5.70;99.90
2861;DHT22;1438;50.922;6.704;2022-11-20T09:59:39;5.70;99.90
2861;DHT22;1438;50.922;6.704;2022-11-20T10:10:34;5.60;99.90
2861;DHT22;1438;50.922;6.704;2022-11-20T10:13:48;5.50;99.90
2861;DHT22;1438;50.922;6.704;2022-11-20T10:16:26;5.60;99.90
2861;DHT22;1438;50.922;6.704;2022-11-20T10:30:09;5.90;99.90
2861;DHT22;1438;50.922;6.704;2022-11-20T10:32:41;6.00;99.90
2861;DHT22;1438;50.922;6.704;2022-11-20T10:37:42;6.00;99.90
2861;DHT22;1438;50.922;6.704;2022-11-20T10:40:22;6.00;99.90
2861;DHT22;1438;50.922;6.704;2022-11-20T10:50:53;5.90;99.90
2861;DHT22;1438;50.922;6.704;2022-11-20T10:56:00;5.90;99.90
2861;DHT22;1438;50.922;6.704;2022-11-20T10:58:34;5.90;99.90
2861;DHT22;1438;50.922;6.704;2022-11-20T11:01:20;5.80;99.90
2861;DHT22;1438;50.922;6.704;2022-11-20T11:03:50;5.80;99.90
2861;DHT22;1438;50.922;6.704;2022-11-20T11:06:42;5.80;99.90
2861;DHT22;1438;50.922;6.704;2022-11-20T11:09:21;5.90;99.90
2861;DHT22;1438;50.922;6.704;2022-11-20T11:11:49;5.90;99.90
2861;DHT22;1438;50.922;6.704;2022-11-20T11:14:15;5.90;99.90
2861;DHT22;1438;50.922;6.704;2022-11-20T11:16:55;5.90;99.90
2861;DHT22;1438;50.922;6.704;2022-11-20T11:19:21;6.00;99.90
2861;DHT22;1438;50.922;6.704;2022-11-20T11:21:53;6.00;99.90
2861;DHT22;1438;50.922;6.704;2022-11-20T11:24:27;5.90;99.90
2861;DHT22;1438;50.922;6.704;2022-11-20T11:27:10;6.00;99.90
2861;DHT22;1438;50.922;6.704;2022-11-20T11:29:36;6.00;99.90
2861;DHT22;1438;50.922;6.704;2022-11-20T11:32:18;6.10;99.90
2861;DHT22;1438;50.922;6.704;2022-11-20T11:34:44;6.10;99.90
2861;DHT22;1438;50.922;6.704;2022-11-20T11:37:19;6.10;99.90
2861;DHT22;1438;50.922;6.704;2022-11-20T11:39:47;6.20;99.90
2861;DHT22;1438;50.922;6.704;2022-11-20T11:42:17;6.20;99.90
2861;DHT22;1438;50.922;6.704;2022-11-20T11:44:45;6.20;99.90
2861;DHT22;1438;50.922;6.704;2022-11-20T11:52:59;5.90;99.90
2861;DHT22;1438;50.922;6.704;2022-11-20T11:55:57;6.00;99.90
2861;DHT22;1438;50.922;6.704;2022-11-20T12:01:32;6.20;99.90
2861;DHT22;1438;50.922;6.704;2022-11-20T12:04:21;6.20;99.90
2861;DHT22;1438;50.922;6.704;2022-11-20T12:07:00;6.20;99.90
2861;DHT22;1438;50.922;6.704;2022-11-20T12:09:37;6.20;99.90
2861;DHT22;1438;50.922;6.704;2022-11-20T12:12:24;6.20;99.90
2861;DHT22;1438;50.922;6.704;2022-11-20T12:14:53;6.30;99.90
2861;DHT22;1438;50.922;6.704;2022-11-20T12:17:20;6.30;99.90
2861;DHT22;1438;50.922;6.704;2022-11-20T12:19:45;6.30;99.90
2861;DHT22;1438;50.922;6.704;2022-11-20T12:25:07;6.50;99.90
2861;DHT22;1438;50.922;6.704;2022-11-20T12:28:36;6.50;99.90
2861;DHT22;1438;50.922;6.704;2022-11-20T12:30:32;6.60;99.90
2861;DHT22;1438;50.922;6.704;2022-11-20T12:33:24;6.80;99.90
2861;DHT22;1438;50.922;6.704;2022-11-20T12:41:16;7.00;99.90
2861;DHT22;1438;50.922;6.704;2022-11-20T12:47:38;7.10;99.90
2861;DHT22;1438;50.922;6.704;2022-11-20T12:50:22;7.20;99.90
2861;DHT22;1438;50.922;6.704;2022-11-20T12:53:05;7.20;99.90
2861;DHT22;1438;50.922;6.704;2022-11-20T12:55:56;7.20;99.90
2861;DHT22;1438;50.922;6.704;2022-11-20T12:58:36;7.20;99.90
2861;DHT22;1438;50.922;6.704;2022-11-20T13:07:00;7.20;99.90
2861;DHT22;1438;50.922;6.704;2022-11-20T13:09:27;7.30;99.90
2861;DHT22;1438;50.922;6.704;2022-11-20T13:12:10;7.30;99.90
2861;DHT22;1438;50.922;6.704;2022-11-20T13:14:40;7.40;99.90
2861;DHT22;1438;50.922;6.704;2022-11-20T13:17:22;7.30;99.90
2861;DHT22;1438;50.922;6.704;2022-11-20T13:19:52;7.40;99.90
2861;DHT22;1438;50.922;6.704;2022-11-20T13:22:48;7.40;99.90
2861;DHT22;1438;50.922;6.704;2022-11-20T13:25:28;7.40;99.90
2861;DHT22;1438;50.922;6.704;2022-11-20T13:28:05;7.40;99.90
2861;DHT22;1438;50.922;6.704;2022-11-20T13:30:54;7.30;99.90
2861;DHT22;1438;50.922;6.704;2022-11-20T13:33:32;7.30;99.90
2861;DHT22;1438;50.922;6.704;2022-11-20T13:36:04;7.30;99.90
2861;DHT22;1438;50.922;6.704;2022-11-20T13:38:48;7.40;99.90
2861;DHT22;1438;50.922;6.704;2022-11-20T13:41:34;7.30;99.90
2861;DHT22;1438;50.922;6.704;2022-11-20T13:44:12;7.40;99.90
2861;DHT22;1438;50.922;6.704;2022-11-20T13:46:44;7.30;99.90
2861;DHT22;1438;50.922;6.704;2022-11-20T13:49:34;7.30;99.90
2861;DHT22;1438;50.922;6.704;2022-11-20T14:00:21;7.30;99.90
2861;DHT22;1438;50.922;6.704;2022-11-20T14:03:23;7.30;99.90
2861;DHT22;1438;50.922;6.704;2022-11-20T14:05:52;7.30;99.90
2861;DHT22;1438;50.922;6.704;2022-11-20T14:08:34;7.20;99.90
2861;DHT22;1438;50.922;6.704;2022-11-20T14:11:24;7.20;99.90
2861;DHT22;1438;50.922;6.704;2022-11-20T14:16:22;7.20;99.90
2861;DHT22;1438;50.922;6.704;2022-11-20T14:18:48;7.20;99.90
2861;DHT22;1438;50.922;6.704;2022-11-20T14:21:25;7.20;99.90
2861;DHT22;1438;50.922;6.704;2022-11-20T14:24:06;7.20;99.90
2861;DHT22;1438;50.922;6.704;2022-11-20T14:26:32;7.20;99.90
2861;DHT22;1438;50.922;6.704;2022-11-20T14:28:59;7.10;99.90
2861;DHT22;1438;50.922;6.704;2022-11-20T14:31:26;7.00;99.90
2861;DHT22;1438;50.922;6.704;2022-11-20T14:33:53;7.00;99.90
2861;DHT22;1438;50.922;6.704;2022-11-20T14:36:21;7.00;99.90
2861;DHT22;1438;50.922;6.704;2022-11-20T14:38:47;6.90;99.90
2861;DHT22;1438;50.922;6.704;2022-11-20T14:41:21;6.90;99.90
2861;DHT22;1438;50.922;6.704;2022-11-20T14:43:56;6.90;99.90
2861;DHT22;1438;50.922;6.704;2022-11-20T14:46:23;7.00;99.90
2861;DHT22;1438;50.922;6.704;2022-11-20T14:48:55;7.00;99.90
2861;DHT22;1438;50.922;6.704;2022-11-20T14:53:55;6.90;99.90
2861;DHT22;1438;50.922;6.704;2022-11-20T14:56:23;6.80;99.90
2861;DHT22;1438;50.922;6.704;2022-11-20T14:58:56;6.80;99.90
2861;DHT22;1438;50.922;6.704;2022-11-20T15:01:27;6.70;99.90
2861;DHT22;1438;50.922;6.704;2022-11-20T15:04:10;6.70;99.90
2861;DHT22;1438;50.922;6.704;2022-11-20T15:06:37;6.60;99.90
2861;DHT22;1438;50.922;6.704;2022-11-20T15:09:14;6.60;99.90
2861;DHT22;1438;50.922;6.704;2022-11-20T15:14:19;6.40;99.90
2861;DHT22;1438;50.922;6.704;2022-11-20T15:16:45;6.40;99.90
2861;DHT22;1438;50.922;6.704;2022-11-20T15:19:28;6.30;99.90
2861;DHT22;1438;50.922;6.704;2022-11-20T15:21:54;6.30;99.90
2861;DHT22;1438;50.922;6.704;2022-11-20T15:24:20;6.30;99.90
2861;DHT22;1438;50.922;6.704;2022-11-20T15:26:46;6.30;99.90
2861;DHT22;1438;50.922;6.704;2022-11-20T15:29:14;6.20;99.90
2861;DHT22;1438;50.922;6.704;2022-11-20T15:31:40;6.20;99.90
2861;DHT22;1438;50.922;6.704;2022-11-20T15:34:11;6.20;99.90
2861;DHT22;1438;50.922;6.704;2022-11-20T15:36:38;6.20;99.90
2861;DHT22;1438;50.922;6.704;2022-11-20T15:39:04;6.10;99.90
2861;DHT22;1438;50.922;6.704;2022-11-20T15:41:29;6.10;99.90
2861;DHT22;1438;50.922;6.704;2022-11-20T15:43:55;6.10;99.90
2861;DHT22;1438;50.922;6.704;2022-11-20T15:46:27;6.10;99.90
2861;DHT22;1438;50.922;6.704;2022-11-20T15:48:57;6.10;99.90
2861;DHT22;1438;50.922;6.704;2022-11-20T15:51:38;6.10;99.90
2861;DHT22;1438;50.922;6.704;2022-11-20T15:54:10;6.10;99.90
2861;DHT22;1438;50.922;6.704;2022-11-20T15:56:36;6.10;99.90
2861;DHT22;1438;50.922;6.704;2022-11-20T15:59:02;6.10;99.90
2861;DHT22;1438;50.922;6.704;2022-11-20T16:01:28;6.10;99.90
2861;DHT22;1438;50.922;6.704;2022-11-20T16:03:53;6.10;99.90
2861;DHT22;1438;50.922;6.704;2022-11-20T16:06:19;6.10;99.90
2861;DHT22;1438;50.922;6.704;2022-11-20T16:08:45;6.10;99.90
2861;DHT22;1438;50.922;6.704;2022-11-20T16:11:15;6.20;99.90
2861;DHT22;1438;50.922;6.704;2022-11-20T16:13:41;6.00;99.90
2861;DHT22;1438;50.922;6.704;2022-11-20T16:16:29;6.10;99.90
2861;DHT22;1438;50.922;6.704;2022-11-20T16:18:57;6.10;99.90
2861;DHT22;1438;50.922;6.704;2022-11-20T16:21:23;6.10;99.90
2861;DHT22;1438;50.922;6.704;2022-11-20T16:24:03;6.10;99.90
2861;DHT22;1438;50.922;6.704;2022-11-20T16:26:30;6.10;99.90
2861;DHT22;1438;50.922;6.704;2022-11-20T16:28:56;6.10;99.90
2861;DHT22;1438;50.922;6.704;2022-11-20T16:31:22;6.10;99.90
2861;DHT22;1438;50.922;6.704;2022-11-20T16:33:52;6.10;99.90
2861;DHT22;1438;50.922;6.704;2022-11-20T16:36:19;6.10;99.90
2861;DHT22;1438;50.922;6.704;2022-11-20T16:38:45;6.10;99.90
2861;DHT22;1438;50.922;6.704;2022-11-20T16:41:11;6.10;99.90
2861;DHT22;1438;50.922;6.704;2022-11-20T16:44:05;6.10;99.90
2861;DHT22;1438;50.922;6.704;2022-11-20T16:46:31;6.10;99.90
2861;DHT22;1438;50.922;6.704;2022-11-20T16:51:24;6.20;99.90
2861;DHT22;1438;50.922;6.704;2022-11-20T16:53:50;6.10;99.90
2861;DHT22;1438;50.922;6.704;2022-11-20T16:56:18;6.10;99.90
2861;DHT22;1438;50.922;6.704;2022-11-20T16:58:45;6.10;99.90
2861;DHT22;1438;50.922;6.704;2022-11-20T17:01:13;6.10;99.90
2861;DHT22;1438;50.922;6.704;2022-11-20T17:03:40;6.20;99.90
2861;DHT22;1438;50.922;6.704;2022-11-20T17:06:14;6.10;99.90
2861;DHT22;1438;50.922;6.704;2022-11-20T17:08:41;6.20;99.90
2861;DHT22;1438;50.922;6.704;2022-11-20T17:11:08;6.10;99.90
2861;DHT22;1438;50.922;6.704;2022-11-20T17:13:35;6.10;99.90
2861;DHT22;1438;50.922;6.704;2022-11-20T17:16:03;6.10;99.90
2861;DHT22;1438;50.922;6.704;2022-11-20T17:18:29;6.10;99.90
2861;DHT22;1438;50.922;6.704;2022-11-20T17:20:55;6.10;99.90
2861;DHT22;1438;50.922;6.704;2022-11-20T17:23:21;6.10;99.90
2861;DHT22;1438;50.922;6.704;2022-11-20T17:25:46;6.10;99.90
2861;DHT22;1438;50.922;6.704;2022-11-20T17:28:12;6.20;99.90
2861;DHT22;1438;50.922;6.704;2022-11-20T17:30:37;6.20;99.90
2861;DHT22;1438;50.922;6.704;2022-11-20T17:33:03;6.20;99.90
2861;DHT22;1438;50.922;6.704;2022-11-20T17:35:29;6.20;99.90
2861;DHT22;1438;50.922;6.704;2022-11-20T17:37:54;6.20;99.90
2861;DHT22;1438;50.922;6.704;2022-11-20T17:40:20;6.20;99.90
2861;DHT22;1438;50.922;6.704;2022-11-20T17:42:45;6.20;99.90
2861;DHT22;1438;50.922;6.704;2022-11-20T17:45:11;6.10;99.90
2861;DHT22;1438;50.922;6.704;2022-11-20T17:47:37;6.10;99.90
2861;DHT22;1438;50.922;6.704;2022-11-20T17:50:03;6.10;99.90
2861;DHT22;1438;50.922;6.704;2022-11-20T17:52:29;6.10;99.90
2861;DHT22;1438;50.922;6.704;2022-11-20T17:54:54;6.20;99.90
2861;DHT22;1438;50.922;6.704;2022-11-20T17:57:22;6.20;99.90
2861;DHT22;1438;50.922;6.704;2022-11-20T18:00:07;6.10;99.90
2861;DHT22;1438;50.922;6.704;2022-11-20T18:02:34;6.10;99.90
2861;DHT22;1438;50.922;6.704;2022-11-20T18:05:00;6.20;99.90